Time;durP1;ratioP1;P1;durP2;ratioP2;P2;SDS_P1;SDS_P2;PMS_P1;PMS_P2;Temp;Humidity;BMP_temperature;BMP_pressure;BME280_temperature;BME280_humidity;BME280_pressure;Samples;Min_cycle;Max_cycle;Signal;HPM_P1;HPM_P2
2023/08/12 00:02:22;;;;;;;0.20;0.20;;;;;;;19.86;100.00;99305.28;5072349;28;20191;-55
2023/08/12 00:05:12;;;;;;;0.10;0.10;;;;;;;19.85;100.00;99306.28;5072372;28;20192;-55
2023/08/12 00:07:59;;;;;;;0.10;0.10;;;;;;;19.77;100.00;99297.28;5072292;28;20253;-55
2023/08/12 00:10:46;;;;;;;0.10;0.10;;;;;;;19.72;100.00;99301.31;5071019;28;20187;-54
2023/08/12 00:13:32;;;;;;;0.10;0.10;;;;;;;19.79;100.00;99295.31;5072184;28;20330;-55
2023/08/12 00:16:19;;;;;;;0.10;0.10;;;;;;;19.65;100.00;99292.16;5072802;28;20219;-55
2023/08/12 00:19:08;;;;;;;0.10;0.10;;;;;;;19.59;100.00;99289.22;5076258;28;20242;-55
2023/08/12 00:21:56;;;;;;;0.20;0.20;;;;;;;19.75;100.00;99292.09;5076161;28;20203;-55
2023/08/12 00:24:44;;;;;;;0.17;0.17;;;;;;;19.76;100.00;99280.31;5074799;28;20195;-55
2023/08/12 00:27:31;;;;;;;0.10;0.10;;;;;;;19.95;100.00;99272.09;5075964;28;20208;-55
2023/08/12 00:30:18;;;;;;;0.20;0.20;;;;;;;20.13;100.00;99268.53;5075976;28;20195;-55
2023/08/12 00:33:05;;;;;;;0.10;0.10;;;;;;;20.21;100.00;99264.06;5075867;28;20195;-55
2023/08/12 00:35:54;;;;;;;0.15;0.15;;;;;;;20.22;100.00;99259.53;5074492;28;20644;-54
2023/08/12 00:38:42;;;;;;;0.10;0.10;;;;;;;20.11;100.00;99260.66;5075238;28;20298;-55
2023/08/12 00:41:29;;;;;;;0.20;0.20;;;;;;;19.90;100.00;99268.22;5075791;28;20201;-56
2023/08/12 00:44:16;;;;;;;0.10;0.10;;;;;;;19.73;100.00;99272.59;5075736;28;20246;-55
2023/08/12 00:47:03;;;;;;;0.10;0.10;;;;;;;19.77;100.00;99267.72;5075718;28;20307;-55
2023/08/12 00:49:51;;;;;;;0.10;0.10;;;;;;;19.81;100.00;99266.44;5074531;28;20196;-55
2023/08/12 00:52:38;;;;;;;0.10;0.10;;;;;;;20.10;100.00;99250.88;5074554;28;20342;-55
2023/08/12 00:55:26;;;;;;;0.10;0.10;;;;;;;20.27;100.00;99246.47;5074193;28;20310;-55
2023/08/12 00:58:13;;;;;;;0.10;0.10;;;;;;;20.37;100.00;99249.06;5075458;28;20778;-55
2023/08/12 01:01:00;;;;;;;0.10;0.10;;;;;;;20.44;100.00;99242.06;5074232;28;20227;-55
2023/08/12 01:03:47;;;;;;;0.10;0.10;;;;;;;20.43;100.00;99235.00;5075340;28;20287;-55
2023/08/12 01:06:34;;;;;;;0.10;0.10;;;;;;;20.37;100.00;99236.44;5075310;28;20184;-55
2023/08/12 01:09:21;;;;;;;0.15;0.15;;;;;;;20.33;100.00;99226.16;5073974;28;20219;-55
2023/08/12 01:12:15;;;;;;;0.10;0.10;;;;;;;20.42;100.00;99220.66;5075240;28;20238;-55
2023/08/12 01:15:08;;;;;;;0.10;0.10;;;;;;;20.52;100.00;99218.72;5075149;28;20671;-54
2023/08/12 01:17:57;;;;;;;0.10;0.10;;;;;;;20.57;100.00;99205.66;5075079;28;20307;-55
2023/08/12 01:20:44;;;;;;;0.10;0.10;;;;;;;20.62;100.00;99202.47;5074103;28;20195;-55
2023/08/12 01:23:33;;;;;;;0.10;0.10;;;;;;;20.61;100.00;99203.47;5074128;28;20195;-55
2023/08/12 01:26:20;;;;;;;0.10;0.10;;;;;;;20.52;100.00;99189.13;5074673;28;20227;-55
2023/08/12 01:29:07;;;;;;;0.10;0.10;;;;;;;20.38;100.00;99205.84;5072840;28;20200;-55
2023/08/12 01:31:59;;;;;;;0.10;0.10;;;;;;;20.16;100.00;99207.22;5074778;28;20575;-55
2023/08/12 01:34:51;;;;;;;0.10;0.10;;;;;;;20.07;100.00;99200.09;5074572;28;20191;-55
2023/08/12 01:37:40;;;;;;;0.10;0.10;;;;;;;20.24;100.00;99198.34;5074291;28;20227;-55
2023/08/12 01:40:30;;;;;;;0.10;0.10;;;;;;;20.30;100.00;99195.03;5073451;28;20263;-55
2023/08/12 01:43:17;;;;;;;0.10;0.10;;;;;;;20.26;100.00;99196.34;5073572;28;20211;-55
2023/08/12 01:46:04;;;;;;;0.10;0.10;;;;;;;20.29;100.00;99190.66;5074642;28;20312;-55
2023/08/12 01:48:51;;;;;;;0.10;0.10;;;;;;;20.32;100.00;99195.72;5074611;28;20229;-55
2023/08/12 01:51:38;;;;;;;0.10;0.10;;;;;;;20.28;100.00;99189.81;5074448;28;20196;-55
2023/08/12 01:54:25;;;;;;;0.10;0.10;;;;;;;20.26;100.00;99194.50;5072163;28;20211;-55
2023/08/12 01:57:13;;;;;;;0.10;0.10;;;;;;;20.23;100.00;99191.28;5074230;28;20746;-55
2023/08/12 02:00:01;;;;;;;0.10;0.10;;;;;;;20.22;100.00;99192.28;5073137;28;20196;-55
2023/08/12 02:03:02;;;;;;;0.10;0.10;;;;;;;20.31;100.00;99188.66;5074014;28;20195;-55
2023/08/12 02:05:49;;;;;;;0.10;0.10;;;;;;;20.37;100.00;99184.50;5074085;28;20683;-55
2023/08/12 02:08:36;;;;;;;0.10;0.10;;;;;;;20.41;100.00;99192.06;5073000;28;20525;-55
2023/08/12 02:11:23;;;;;;;0.10;0.10;;;;;;;20.41;100.00;99194.75;5072939;28;20287;-55
2023/08/12 02:14:13;;;;;;;0.10;0.10;;;;;;;20.20;100.00;99207.75;5072903;28;20219;-55
2023/08/12 02:17:00;;;;;;;0.10;0.10;;;;;;;19.98;100.00;99201.06;5072790;28;20219;-55
2023/08/12 02:19:47;;;;;;;0.10;0.10;;;;;;;20.12;100.00;99210.38;5072874;28;20199;-55
2023/08/12 02:22:34;;;;;;;0.10;0.10;;;;;;;20.05;100.00;99212.84;5073668;28;20191;-55
2023/08/12 02:25:21;;;;;;;0.10;0.10;;;;;;;20.14;100.00;99213.75;5072602;28;20187;-55
2023/08/12 02:28:08;;;;;;;0.10;0.10;;;;;;;20.17;100.00;99208.03;5073696;28;20210;-55
2023/08/12 02:30:56;;;;;;;0.10;0.10;;;;;;;20.25;100.00;99205.41;5073474;28;20190;-55
2023/08/12 02:33:44;;;;;;;0.10;0.10;;;;;;;20.34;100.00;99211.69;5073680;28;20207;-55
2023/08/12 02:36:31;;;;;;;0.10;0.10;;;;;;;20.49;100.00;99215.53;5072250;28;20720;-56
2023/08/12 02:39:18;;;;;;;0.10;0.10;;;;;;;20.55;100.00;99225.63;5071907;28;20194;-56
2023/08/12 02:42:05;;;;;;;0.10;0.10;;;;;;;20.43;100.00;99217.00;5072444;28;20195;-56
2023/08/12 02:44:52;;;;;;;0.10;0.10;;;;;;;20.51;100.00;99227.81;5073478;28;20333;-55
2023/08/12 02:47:41;;;;;;;0.10;0.10;;;;;;;20.42;100.00;99225.19;5073341;28;20195;-55
2023/08/12 02:50:28;;;;;;;0.10;0.10;;;;;;;20.40;100.00;99230.75;5072140;28;20271;-55
2023/08/12 02:53:16;;;;;;;0.10;0.10;;;;;;;20.37;100.00;99243.69;5073285;28;20332;-55
2023/08/12 02:56:03;;;;;;;0.10;0.10;;;;;;;20.25;100.00;99249.28;5071569;28;20281;-54
2023/08/12 02:58:50;;;;;;;0.10;0.10;;;;;;;20.30;100.00;99259.59;5073169;28;20203;-55
2023/08/12 03:01:37;;;;;;;0.10;0.10;;;;;;;20.52;100.00;99266.31;5073180;28;20194;-55
2023/08/12 03:04:25;;;;;;;0.10;0.10;;;;;;;20.35;100.00;99278.78;5072075;28;20672;-56
2023/08/12 03:07:12;;;;;;;0.10;0.10;;;;;;;20.26;100.00;99279.72;5072064;28;20252;-56
2023/08/12 03:10:00;;;;;;;0.10;0.10;;;;;;;20.11;100.00;99289.38;5071708;28;20199;-56
2023/08/12 03:12:47;;;;;;;0.10;0.10;;;;;;;20.03;100.00;99298.22;5072812;28;20199;-56
2023/08/12 03:15:34;;;;;;;0.10;0.10;;;;;;;20.07;100.00;99299.59;5071886;28;20241;-56
2023/08/12 03:18:22;;;;;;;0.10;0.10;;;;;;;20.11;100.00;99300.13;5072494;28;20285;-56
2023/08/12 03:21:10;;;;;;;0.10;0.10;;;;;;;20.02;100.00;99289.31;5071624;28;20234;-56
2023/08/12 03:23:59;;;;;;;0.10;0.10;;;;;;;20.04;100.00;99304.44;5070504;28;20231;-56
2023/08/12 03:26:46;;;;;;;0.20;0.20;;;;;;;19.94;100.00;99312.59;5071663;28;20188;-56
2023/08/12 03:29:33;;;;;;;0.10;0.10;;;;;;;19.75;100.00;99316.28;5072589;28;20191;-56
2023/08/12 03:32:19;;;;;;;0.10;0.10;;;;;;;19.70;100.00;99329.34;5072566;28;20318;-56
2023/08/12 03:35:08;;;;;;;0.10;0.10;;;;;;;19.66;100.00;99319.88;5071643;28;20703;-56
2023/08/12 03:37:56;;;;;;;0.10;0.10;;;;;;;19.69;100.00;99319.59;5071532;28;20211;-56
2023/08/12 03:40:44;;;;;;;0.10;0.10;;;;;;;19.56;100.00;99332.53;5070304;28;20211;-56
2023/08/12 03:43:34;;;;;;;0.10;0.10;;;;;;;19.57;100.00;99342.28;5071616;28;20277;-56
2023/08/12 03:46:21;;;;;;;0.10;0.10;;;;;;;19.45;100.00;99353.22;5072625;28;20202;-56
2023/08/12 03:49:08;;;;;;;0.10;0.10;;;;;;;19.47;100.00;99353.06;5071507;28;20199;-56
2023/08/12 03:51:55;;;;;;;0.10;0.10;;;;;;;19.41;100.00;99351.81;5070967;28;20682;-56
2023/08/12 03:54:43;;;;;;;0.10;0.10;;;;;;;19.48;100.00;99375.38;5070312;28;20203;-56
2023/08/12 03:57:31;;;;;;;0.10;0.10;;;;;;;19.42;100.00;99374.16;5071115;28;20283;-55
2023/08/12 04:00:18;;;;;;;0.10;0.10;;;;;;;19.38;100.00;99356.63;5071394;28;20268;-56
2023/08/12 04:03:05;;;;;;;0.10;0.10;;;;;;;19.30;100.00;99340.41;5072430;28;20294;-56
2023/08/12 04:05:53;;;;;;;0.10;0.10;;;;;;;19.25;100.00;99351.63;5071359;28;20188;-56
2023/08/12 04:08:41;;;;;;;0.10;0.10;;;;;;;19.25;100.00;99340.03;5070051;28;20204;-56
2023/08/12 04:11:30;;;;;;;0.10;0.10;;;;;;;19.26;100.00;99377.47;5071283;28;20195;-56
2023/08/12 04:14:16;;;;;;;0.10;0.10;;;;;;;19.33;100.00;99385.81;5071249;28;20196;-56
2023/08/12 04:17:04;;;;;;;0.13;0.13;;;;;;;19.23;100.00;99377.78;5071254;28;20195;-56
2023/08/12 04:19:51;;;;;;;0.10;0.10;;;;;;;19.18;100.00;99380.06;5071235;28;20199;-56
2023/08/12 04:22:39;;;;;;;0.10;0.10;;;;;;;19.19;100.00;99391.63;5071124;28;20311;-56
2023/08/12 04:25:26;;;;;;;0.10;0.10;;;;;;;19.17;100.00;99395.31;5069935;28;20204;-56
2023/08/12 04:28:15;;;;;;;0.10;0.10;;;;;;;19.20;100.00;99390.63;5072385;28;20219;-56
2023/08/12 04:31:07;;;;;;;0.17;0.17;;;;;;;19.18;100.00;99388.09;5071153;28;20780;-56
2023/08/12 04:33:56;;;;;;;0.10;0.10;;;;;;;19.24;100.00;99392.06;5070874;28;20203;-56
2023/08/12 04:36:45;;;;;;;0.10;0.10;;;;;;;19.23;100.00;99369.72;5071792;28;20239;-56
2023/08/12 04:39:32;;;;;;;0.10;0.10;;;;;;;19.25;100.00;99364.19;5069608;28;20722;-56
2023/08/12 04:42:19;;;;;;;0.10;0.10;;;;;;;19.23;100.00;99367.03;5070876;28;20238;-56
2023/08/12 04:45:08;;;;;;;0.10;0.10;;;;;;;19.24;100.00;99362.50;5070974;28;20266;-56
2023/08/12 04:47:59;;;;;;;0.10;0.10;;;;;;;19.24;100.00;99360.66;5071008;28;20192;-56
2023/08/12 04:50:47;;;;;;;0.10;0.10;;;;;;;19.32;100.00;99346.50;5070711;28;20219;-56
2023/08/12 04:53:36;;;;;;;0.10;0.10;;;;;;;19.30;100.00;99345.78;5069928;28;20199;-56
2023/08/12 04:56:25;;;;;;;0.10;0.10;;;;;;;19.31;100.00;99342.97;5070835;28;20196;-56
2023/08/12 04:59:12;;;;;;;0.10;0.10;;;;;;;19.08;100.00;99336.28;5070354;28;20223;-56
2023/08/12 05:02:00;;;;;;;0.10;0.10;;;;;;;19.05;100.00;99313.25;5071903;28;20683;-56
2023/08/12 05:04:52;;;;;;;0.10;0.10;;;;;;;19.20;100.00;99316.28;5073833;28;20265;-56
2023/08/12 05:07:41;;;;;;;0.10;0.10;;;;;;;19.24;100.00;99316.84;5073879;28;20192;-56
2023/08/12 05:10:28;;;;;;;0.20;0.20;;;;;;;19.30;100.00;99325.16;5073985;28;20250;-56
2023/08/12 05:13:15;;;;;;;0.10;0.10;;;;;;;19.15;100.00;99311.38;5074140;28;20325;-56
2023/08/12 05:16:02;;;;;;;0.10;0.10;;;;;;;19.23;100.00;99310.63;5075305;28;20196;-56
2023/08/12 05:18:50;;;;;;;0.20;0.20;;;;;;;19.24;100.00;99306.13;5073966;28;20768;-56
2023/08/12 05:21:37;;;;;;;0.10;0.10;;;;;;;19.28;100.00;99296.75;5074141;28;20246;-56
2023/08/12 05:24:24;;;;;;;0.10;0.10;;;;;;;19.23;100.00;99304.44;5073817;28;20195;-56
2023/08/12 05:27:11;;;;;;;0.10;0.10;;;;;;;19.32;100.00;99306.22;5075277;28;20195;-56
2023/08/12 05:29:58;;;;;;;0.10;0.10;;;;;;;19.38;100.00;99305.59;5074852;28;20192;-56
2023/08/12 05:32:45;;;;;;;0.10;0.10;;;;;;;19.36;100.00;99300.38;5074597;28;20222;-56
2023/08/12 05:35:35;;;;;;;0.10;0.10;;;;;;;19.43;100.00;99312.22;5074723;28;20290;-56
2023/08/12 05:38:22;;;;;;;0.10;0.10;;;;;;;19.59;100.00;99311.59;5074447;28;20235;-56
2023/08/12 05:41:09;;;;;;;0.10;0.10;;;;;;;19.64;100.00;99295.00;5074844;28;20203;-56
2023/08/12 05:43:56;;;;;;;0.10;0.10;;;;;;;19.67;100.00;99292.84;5075043;28;20314;-56
2023/08/12 05:46:43;;;;;;;0.10;0.10;;;;;;;19.77;100.00;99286.53;5074880;28;20196;-56
2023/08/12 05:49:30;;;;;;;0.10;0.10;;;;;;;19.84;100.00;99287.63;5074475;28;20192;-56
2023/08/12 05:52:19;;;;;;;0.10;0.10;;;;;;;19.82;100.00;99289.63;5074452;28;20266;-56
2023/08/12 05:55:06;;;;;;;0.10;0.10;;;;;;;19.91;100.00;99284.19;5073296;28;20202;-56
2023/08/12 05:57:53;;;;;;;0.10;0.10;;;;;;;19.93;100.00;99284.84;5074326;28;20707;-56
2023/08/12 06:00:40;;;;;;;0.10;0.10;;;;;;;20.00;100.00;99274.34;5074450;28;20266;-56
2023/08/12 06:03:27;;;;;;;0.10;0.10;;;;;;;20.10;100.00;99272.41;5074333;28;20310;-56
2023/08/12 06:06:14;;;;;;;0.10;0.10;;;;;;;20.05;100.00;99274.69;5074361;28;20199;-56
2023/08/12 06:09:03;;;;;;;0.10;0.10;;;;;;;20.06;100.00;99267.47;5072873;28;20195;-56
2023/08/12 06:11:50;;;;;;;0.10;0.10;;;;;;;20.14;100.00;99263.00;5074168;28;20192;-56
2023/08/12 06:14:38;;;;;;;0.10;0.10;;;;;;;20.21;100.00;99269.47;5073630;28;20199;-57
2023/08/12 06:17:25;;;;;;;0.10;0.10;;;;;;;20.31;100.00;99255.91;5074032;28;20266;-56
2023/08/12 06:20:13;;;;;;;0.10;0.10;;;;;;;20.28;100.00;99265.16;5073936;28;20191;-56
2023/08/12 06:23:00;;;;;;;0.10;0.10;;;;;;;20.47;100.00;99255.22;5073975;28;20242;-56
2023/08/12 06:25:48;;;;;;;0.10;0.10;;;;;;;20.51;100.00;99253.88;5072522;28;20227;-56
2023/08/12 06:28:35;;;;;;;0.10;0.10;;;;;;;20.53;100.00;99259.94;5072598;28;20303;-56
2023/08/12 06:31:22;;;;;;;0.10;0.10;;;;;;;20.35;100.00;99276.09;5073911;28;20247;-56
2023/08/12 06:34:09;;;;;;;0.10;0.10;;;;;;;20.33;100.00;99274.56;5073940;28;20191;-56
2023/08/12 06:36:56;;;;;;;0.10;0.10;;;;;;;20.29;100.00;99287.50;5073144;28;20266;-56
2023/08/12 06:39:43;;;;;;;0.10;0.10;;;;;;;20.42;100.00;99297.84;5071868;28;20227;-55
2023/08/12 06:42:31;;;;;;;0.10;0.10;;;;;;;20.64;100.00;99297.34;5073603;28;20245;-55
2023/08/12 06:45:18;;;;;;;0.10;0.10;;;;;;;20.70;100.00;99299.41;5073329;28;20200;-56
2023/08/12 06:48:05;;;;;;;0.10;0.10;;;;;;;21.03;100.00;99297.72;5073384;28;20211;-56
2023/08/12 06:50:55;;;;;;;0.10;0.10;;;;;;;21.04;100.00;99283.28;5073395;28;20199;-56
2023/08/12 06:53:41;;;;;;;0.10;0.10;;;;;;;21.20;100.00;99282.47;5071630;28;20200;-56
2023/08/12 06:56:28;;;;;;;0.10;0.10;;;;;;;21.57;100.00;99279.41;5073264;28;20194;-56
2023/08/12 06:59:17;;;;;;;0.10;0.10;;;;;;;21.61;100.00;99271.84;5072085;28;20223;-56
2023/08/12 07:02:04;;;;;;;0.10;0.10;;;;;;;21.91;100.00;99265.81;5072846;28;20258;-56
2023/08/12 07:04:50;;;;;;;0.10;0.10;;;;;;;22.14;100.00;99249.81;5073064;28;20195;-56
2023/08/12 07:07:37;;;;;;;0.10;0.10;;;;;;;22.45;100.00;99244.53;5073054;28;20210;-56
2023/08/12 07:10:24;;;;;;;0.10;0.10;;;;;;;22.59;100.00;99223.25;5071680;28;20786;-56
2023/08/12 07:13:13;;;;;;;0.10;0.10;;;;;;;23.21;100.00;99218.78;5073030;28;20219;-56
2023/08/12 07:16:02;;;;;;;0.10;0.10;;;;;;;23.01;100.00;99214.84;5072715;28;20195;-56
2023/08/12 07:18:49;;;;;;;0.10;0.10;;;;;;;23.22;100.00;99211.53;5072432;28;20273;-56
2023/08/12 07:21:36;;;;;;;0.10;0.10;;;;;;;23.52;100.00;99226.03;5072747;28;20200;-56
2023/08/12 07:24:23;;;;;;;0.10;0.10;;;;;;;23.28;100.00;99224.34;5071539;28;20217;-56
2023/08/12 07:27:10;;;;;;;0.10;0.10;;;;;;;23.34;100.00;99224.44;5071937;28;20200;-56
2023/08/12 07:29:56;;;;;;;0.00;0.00;;;;;;;23.68;100.00;99228.66;5072821;28;20187;-56
2023/08/12 07:32:45;;;;;;;0.10;0.10;;;;;;;23.29;100.00;99216.03;5072487;28;20199;-56
2023/08/12 07:35:32;;;;;;;0.10;0.10;;;;;;;23.42;100.00;99226.25;5072416;28;20202;-56
2023/08/12 07:38:19;;;;;;;0.10;0.10;;;;;;;23.91;100.00;99221.34;5072698;28;20195;-56
2023/08/12 07:41:06;;;;;;;0.10;0.10;;;;;;;23.90;100.00;99205.31;5072518;28;20187;-56
2023/08/12 07:43:53;;;;;;;0.10;0.10;;;;;;;24.34;100.00;99201.91;5072233;28;20265;-56
2023/08/12 07:46:39;;;;;;;0.10;0.10;;;;;;;25.25;100.00;99196.03;5072672;28;20192;-56
2023/08/12 07:49:28;;;;;;;0.10;0.10;;;;;;;25.80;100.00;99191.81;5072720;28;20291;-56
2023/08/12 07:52:14;;;;;;;0.10;0.10;;;;;;;25.33;100.00;99185.06;5072378;28;20199;-56
2023/08/12 07:55:01;;;;;;;0.10;0.10;;;;;;;25.59;100.00;99183.66;5071071;28;20192;-56
2023/08/12 07:57:48;;;;;;;0.00;0.00;;;;;;;24.84;100.00;99190.28;5072445;28;20290;-56
2023/08/12 08:00:35;;;;;;;0.10;0.10;;;;;;;23.87;100.00;99202.97;5071890;28;20215;-56
2023/08/12 08:03:22;;;;;;;0.10;0.10;;;;;;;23.76;100.00;99217.78;5072378;28;20210;-56
2023/08/12 08:06:10;;;;;;;0.10;0.10;;;;;;;23.36;100.00;99217.03;5072300;28;20382;-56
2023/08/12 08:08:57;;;;;;;0.10;0.10;;;;;;;23.34;100.00;99232.56;5071088;28;20195;-55
2023/08/12 08:11:44;;;;;;;0.10;0.10;;;;;;;23.30;100.00;99230.41;5072338;28;20203;-56
2023/08/12 08:14:31;;;;;;;0.10;0.10;;;;;;;22.75;100.00;99242.94;5072333;28;20202;-56
2023/08/12 08:17:18;;;;;;;0.10;0.10;;;;;;;23.02;100.00;99248.94;5072129;28;20199;-56
2023/08/12 08:20:06;;;;;;;0.10;0.10;;;;;;;22.91;100.00;99252.03;5071930;28;20214;-56
2023/08/12 08:22:55;;;;;;;0.10;0.10;;;;;;;22.76;100.00;99254.56;5072166;28;20198;-56
2023/08/12 08:25:42;;;;;;;0.10;0.10;;;;;;;23.07;100.00;99249.28;5070723;28;20188;-56
2023/08/12 08:28:29;;;;;;;0.10;0.10;;;;;;;22.84;100.00;99257.28;5072109;28;20207;-56
2023/08/12 08:31:16;;;;;;;0.10;0.10;;;;;;;22.77;100.00;99280.56;5072153;28;20714;-56
2023/08/12 08:34:02;;;;;;;0.10;0.10;;;;;;;22.68;100.00;99276.19;5071898;28;20191;-56
2023/08/12 08:36:51;;;;;;;0.10;0.10;;;;;;;22.38;100.00;99269.69;5071825;28;20302;-56
2023/08/12 08:39:39;;;;;;;0.10;0.10;;;;;;;22.14;100.00;99267.88;5074244;28;20790;-56
2023/08/12 08:42:26;;;;;;;0.10;0.10;;;;;;;22.12;100.00;99257.25;5075636;28;20195;-56
2023/08/12 08:45:14;;;;;;;0.10;0.10;;;;;;;21.94;100.00;99248.44;5075643;28;20199;-56
2023/08/12 08:48:03;;;;;;;0.00;0.00;;;;;;;22.18;100.00;99248.47;5075741;28;20203;-57
2023/08/12 08:50:51;;;;;;;0.10;0.10;;;;;;;22.17;100.00;99233.28;5075636;28;20262;-57
2023/08/12 08:53:39;;;;;;;0.10;0.10;;;;;;;22.46;100.00;99246.22;5074322;28;20387;-57
2023/08/12 08:56:27;;;;;;;0.10;0.10;;;;;;;22.82;100.00;99237.69;5075442;28;20289;-56
2023/08/12 08:59:14;;;;;;;0.10;0.10;;;;;;;23.52;100.00;99229.56;5072593;28;20521;-57
2023/08/12 09:02:01;;;;;;;0.10;0.10;;;;;;;23.64;100.00;99217.38;5074172;28;20342;-57
2023/08/12 09:04:49;;;;;;;0.10;0.10;;;;;;;23.30;100.00;99212.31;5074862;28;20329;-56
2023/08/12 09:07:36;;;;;;;0.10;0.10;;;;;;;23.36;100.00;99202.66;5074344;28;20203;-57
2023/08/12 09:10:26;;;;;;;0.10;0.10;;;;;;;23.28;100.00;99197.31;5073505;28;20262;-57
2023/08/12 09:13:18;;;;;;;0.10;0.10;;;;;;;23.76;100.00;99200.72;5074651;28;20192;-57
2023/08/12 09:16:05;;;;;;;0.10;0.10;;;;;;;23.85;100.00;99194.22;5074557;28;20188;-57
2023/08/12 09:18:56;;;;;;;0.10;0.10;;;;;;;23.60;100.00;99191.69;5074544;28;20195;-56
2023/08/12 09:21:43;;;;;;;0.10;0.10;;;;;;;23.64;100.00;99198.44;5074000;28;20214;-56
2023/08/12 09:24:30;;;;;;;0.10;0.10;;;;;;;23.59;100.00;99206.25;5073368;28;20196;-56
2023/08/12 09:27:19;;;;;;;0.10;0.10;;;;;;;23.93;100.00;99200.41;5074277;28;20378;-56
2023/08/12 09:30:08;;;;;;;0.10;0.10;;;;;;;23.57;100.00;99197.44;5074028;28;20212;-56
2023/08/12 09:33:03;;;;;;;0.10;0.10;;;;;;;23.58;100.00;99199.13;5074584;28;20334;-56
2023/08/12 09:35:50;;;;;;;0.10;0.10;;;;;;;23.56;100.00;99217.41;5074153;28;20276;-56
2023/08/12 09:38:38;;;;;;;0.10;0.10;;;;;;;23.24;100.00;99201.38;5073070;28;20238;-56
2023/08/12 09:41:25;;;;;;;0.10;0.10;;;;;;;23.12;100.00;99209.03;5073951;28;20211;-56
2023/08/12 09:44:12;;;;;;;0.10;0.10;;;;;;;23.28;100.00;99211.66;5073845;28;20195;-56
2023/08/12 09:47:01;;;;;;;0.10;0.10;;;;;;;23.59;100.00;99211.66;5074024;28;20200;-56
2023/08/12 09:49:48;;;;;;;0.10;0.10;;;;;;;23.91;100.00;99207.84;5072311;28;20203;-56
2023/08/12 09:52:36;;;;;;;0.10;0.10;;;;;;;24.14;100.00;99199.69;5073864;28;20200;-56
2023/08/12 09:55:25;;;;;;;0.10;0.10;;;;;;;23.50;100.00;99203.75;5073065;28;20200;-56
2023/08/12 09:58:14;;;;;;;0.10;0.10;;;;;;;23.62;100.00;99202.31;5073394;28;20215;-56
2023/08/12 10:01:01;;;;;;;0.10;0.10;;;;;;;23.44;100.00;99210.69;5073516;28;20226;-56
2023/08/12 10:03:52;;;;;;;0.10;0.10;;;;;;;23.18;100.00;99219.16;5073795;28;20203;-56
2023/08/12 10:06:39;;;;;;;0.10;0.10;;;;;;;23.27;100.00;99220.78;5074302;28;20683;-56
2023/08/12 10:09:26;;;;;;;0.10;0.10;;;;;;;23.30;100.00;99223.13;5072610;28;20195;-56
2023/08/12 10:12:14;;;;;;;0.10;0.10;;;;;;;24.06;100.00;99228.69;5073988;28;20257;-56
2023/08/12 10:15:06;;;;;;;0.10;0.10;;;;;;;24.32;100.00;99188.53;5073972;28;20199;-56
2023/08/12 10:17:53;;;;;;;0.10;0.10;;;;;;;25.06;100.00;99186.63;5074083;28;20667;-56
2023/08/12 10:20:43;;;;;;;0.10;0.10;;;;;;;25.24;100.00;99183.50;5073755;28;20218;-56
2023/08/12 10:23:30;;;;;;;0.10;0.10;;;;;;;25.57;100.00;99169.44;5072688;28;20703;-56
2023/08/12 10:26:18;;;;;;;0.10;0.10;;;;;;;25.13;100.00;99167.75;5073710;28;20199;-56
2023/08/12 10:29:05;;;;;;;0.00;0.00;;;;;;;25.03;100.00;99165.34;5073646;28;20203;-56
2023/08/12 10:31:52;;;;;;;0.10;0.10;;;;;;;25.50;100.00;99165.84;5073801;28;20186;-56
2023/08/12 10:34:40;;;;;;;0.10;0.10;;;;;;;25.69;100.00;99184.19;5073782;28;20203;-56
2023/08/12 10:37:32;;;;;;;0.10;0.10;;;;;;;25.53;100.00;99177.13;5073199;28;20231;-56
2023/08/12 10:40:23;;;;;;;0.10;0.10;;;;;;;25.81;100.00;99176.38;5072000;28;20208;-56
2023/08/12 10:43:12;;;;;;;0.00;0.00;;;;;;;25.96;100.00;99177.09;5073427;28;20195;-56
2023/08/12 10:45:58;;;;;;;0.10;0.10;;;;;;;25.43;100.00;99187.47;5072578;28;20193;-56
2023/08/12 10:48:58;;;;;;;0.10;0.10;;;;;;;24.97;100.00;99197.75;5071012;28;20191;-56
2023/08/12 10:51:49;;;;;;;0.10;0.10;;;;;;;24.48;100.00;99212.72;5089275;28;20268;-56
2023/08/12 10:54:39;;;;;;;0.10;0.10;;;;;;;24.00;100.00;99224.84;5092277;28;20183;-55
2023/08/12 10:57:47;;;;;;;0.10;0.10;;;;;;;23.69;100.00;99233.88;5093673;28;20210;-56
2023/08/12 11:00:36;;;;;;;0.10;0.10;;;;;;;23.61;100.00;99233.09;5093459;28;20257;-56
2023/08/12 11:03:23;;;;;;;0.10;0.10;;;;;;;23.75;100.00;99232.34;5093705;28;20674;-55
2023/08/12 11:06:11;;;;;;;0.10;0.10;;;;;;;23.60;100.00;99243.06;5093354;28;20230;-56
2023/08/12 11:08:59;;;;;;;0.10;0.10;;;;;;;23.49;100.00;99237.22;5092264;28;20202;-56
2023/08/12 11:11:58;;;;;;;0.10;0.10;;;;;;;23.41;100.00;99238.94;5093470;28;20253;-56
2023/08/12 11:14:49;;;;;;;0.10;0.10;;;;;;;23.31;100.00;99242.91;5093215;28;20313;-56
2023/08/12 11:17:37;;;;;;;0.10;0.10;;;;;;;23.01;100.00;99249.97;5093424;28;20195;-56
2023/08/12 11:20:25;;;;;;;0.10;0.10;;;;;;;22.83;100.00;99242.91;5093252;28;20199;-56
2023/08/12 11:23:12;;;;;;;0.10;0.10;;;;;;;22.54;100.00;99254.31;5093349;28;20199;-57
2023/08/12 11:25:59;;;;;;;0.10;0.10;;;;;;;22.53;100.00;99254.50;5093239;28;20198;-57
2023/08/12 11:28:48;;;;;;;0.10;0.10;;;;;;;22.42;100.00;99235.97;5093227;28;20213;-57
2023/08/12 11:31:36;;;;;;;0.10;0.10;;;;;;;22.51;100.00;99232.22;5092202;28;20694;-57
2023/08/12 11:34:22;;;;;;;0.10;0.10;;;;;;;22.59;100.00;99240.31;5092807;28;20198;-57
2023/08/12 11:37:10;;;;;;;0.10;0.10;;;;;;;22.79;100.00;99229.94;5092784;28;20229;-57
2023/08/12 11:39:56;;;;;;;0.10;0.10;;;;;;;23.04;100.00;99220.72;5091687;28;20192;-57
2023/08/12 11:42:47;;;;;;;0.10;0.10;;;;;;;23.16;100.00;99213.06;5092543;28;20257;-57
2023/08/12 11:45:37;;;;;;;0.10;0.10;;;;;;;23.65;100.00;99207.41;5093009;28;20194;-57
2023/08/12 11:48:24;;;;;;;0.10;0.10;;;;;;;24.17;100.00;99195.78;5092904;28;20551;-57
2023/08/12 11:51:11;;;;;;;0.10;0.10;;;;;;;24.62;100.00;99178.56;5092846;28;20183;-57
2023/08/12 11:53:58;;;;;;;0.10;0.10;;;;;;;26.97;100.00;99143.03;5091567;28;20237;-57
2023/08/12 11:56:45;;;;;;;0.00;0.00;;;;;;;30.31;100.00;99078.78;5092888;28;20261;-57
2023/08/12 11:59:32;;;;;;;0.00;0.00;;;;;;;32.62;100.00;99055.09;5092816;28;20198;-58
2023/08/12 12:02:21;;;;;;;0.00;0.00;;;;;;;33.77;100.00;99062.09;5092291;28;20223;-57
2023/08/12 12:05:10;;;;;;;0.00;0.00;;;;;;;33.10;100.00;99073.00;5092827;28;20202;-57
2023/08/12 12:07:57;;;;;;;0.00;0.00;;;;;;;32.88;100.00;99078.38;5092795;28;20289;-57
2023/08/12 12:10:44;;;;;;;0.00;0.00;;;;;;;32.05;100.00;99076.88;5091482;28;20261;-57
2023/08/12 12:13:31;;;;;;;0.00;0.00;;;;;;;29.43;100.00;99078.91;5095597;28;20194;-57
2023/08/12 12:16:18;;;;;;;0.00;0.00;;;;;;;29.23;100.00;99087.22;5096875;28;20273;-56
2023/08/12 12:19:07;;;;;;;0.00;0.00;;;;;;;27.78;100.00;99080.41;5096623;28;20203;-56
2023/08/12 12:21:54;;;;;;;0.00;0.00;;;;;;;27.67;100.00;99108.25;5096565;28;20219;-57
2023/08/12 12:24:48;;;;;;;0.00;0.00;;;;;;;27.59;100.00;99114.72;5095318;28;20328;-56
2023/08/12 12:27:35;;;;;;;0.00;0.00;;;;;;;26.82;100.00;99115.16;5096338;28;20313;-56
2023/08/12 12:30:22;;;;;;;0.10;0.10;;;;;;;26.63;100.00;99094.19;5096588;28;20358;-56
2023/08/12 12:33:09;;;;;;;0.10;0.10;;;;;;;26.74;100.00;99093.63;5096590;28;20195;-56
2023/08/12 12:35:57;;;;;;;0.00;0.00;;;;;;;27.09;100.00;99091.66;5096125;28;20736;-57
2023/08/12 12:38:48;;;;;;;0.00;0.00;;;;;;;26.85;100.00;99106.63;5094164;28;20332;-56
2023/08/12 12:41:35;;;;;;;0.10;0.10;;;;;;;26.40;100.00;99113.53;5096306;28;20345;-56
2023/08/12 12:44:21;;;;;;;0.10;0.10;;;;;;;26.12;100.00;99114.38;5096105;28;20245;-56
2023/08/12 12:47:10;;;;;;;0.08;0.08;;;;;;;26.20;100.00;99124.25;5096411;28;20198;-56
2023/08/12 12:49:57;;;;;;;0.10;0.10;;;;;;;25.50;100.00;99128.69;5096225;28;20199;-56
2023/08/12 12:52:45;;;;;;;0.10;0.10;;;;;;;25.20;100.00;99143.44;5096004;28;20194;-56
2023/08/12 12:55:32;;;;;;;0.10;0.10;;;;;;;25.27;100.00;99161.41;5094724;28;20666;-56
2023/08/12 12:58:22;;;;;;;0.10;0.10;;;;;;;24.81;100.00;99158.16;5096054;28;20679;-56
2023/08/12 13:01:09;;;;;;;0.10;0.10;;;;;;;24.45;100.00;99172.47;5095853;28;20199;-56